sensor_id;sensor_type;location;lat;lon;timestamp;pressure;altitude;pressure_sealevel;temperature;humidity
76627;BME280;65519;53.230;10.390;2023-05-07T00:00:02;101820.38;;;9.08;77.84
76627;BME280;65519;53.230;10.390;2023-05-07T00:02:28;101816.44;;;9.04;78.37
76627;BME280;65519;53.230;10.390;2023-05-07T00:04:53;101820.03;;;9.16;78.06
76627;BME280;65519;53.230;10.390;2023-05-07T00:07:18;101816.22;;;9.05;78.05
76627;BME280;65519;53.230;10.390;2023-05-07T00:09:44;101823.69;;;9.10;77.78
76627;BME280;65519;53.230;10.390;2023-05-07T00:12:09;101821.44;;;9.07;77.96
76627;BME280;65519;53.230;10.390;2023-05-07T00:14:35;101800.78;;;8.88;78.93
76627;BME280;65519;53.230;10.390;2023-05-07T00:17:00;101813.47;;;8.94;77.89
76627;BME280;65519;53.230;10.390;2023-05-07T00:19:26;101813.91;;;8.91;78.93
76627;BME280;65519;53.230;10.390;2023-05-07T00:21:51;101819.50;;;8.96;77.73
76627;BME280;65519;53.230;10.390;2023-05-07T00:24:18;101811.41;;;8.89;78.27
76627;BME280;65519;53.230;10.390;2023-05-07T00:26:44;101815.59;;;8.92;78.25
76627;BME280;65519;53.230;10.390;2023-05-07T00:29:09;101817.13;;;8.99;77.82
76627;BME280;65519;53.230;10.390;2023-05-07T00:31:34;101807.09;;;9.00;77.93
76627;BME280;65519;53.230;10.390;2023-05-07T00:34:00;101806.03;;;9.01;77.87
76627;BME280;65519;53.230;10.390;2023-05-07T00:36:25;101816.84;;;9.07;77.32
76627;BME280;65519;53.230;10.390;2023-05-07T00:38:51;101815.16;;;9.06;77.33
76627;BME280;65519;53.230;10.390;2023-05-07T00:41:16;101807.25;;;9.05;77.45
76627;BME280;65519;53.230;10.390;2023-05-07T00:43:42;101812.69;;;9.05;77.52
76627;BME280;65519;53.230;10.390;2023-05-07T00:46:07;101805.81;;;9.02;77.22
76627;BME280;65519;53.230;10.390;2023-05-07T00:48:32;101801.03;;;8.98;76.70
76627;BME280;65519;53.230;10.390;2023-05-07T00:50:58;101809.81;;;9.00;77.79
76627;BME280;65519;53.230;10.390;2023-05-07T00:53:23;101810.56;;;9.07;77.00
76627;BME280;65519;53.230;10.390;2023-05-07T00:55:49;101799.56;;;9.13;76.10
76627;BME280;65519;53.230;10.390;2023-05-07T00:58:16;101805.13;;;9.07;77.50
76627;BME280;65519;53.230;10.390;2023-05-07T01:00:42;101791.81;;;8.99;76.96
76627;BME280;65519;53.230;10.390;2023-05-07T01:03:07;101799.69;;;9.07;76.83
76627;BME280;65519;53.230;10.390;2023-05-07T01:05:33;101790.47;;;9.08;76.67
76627;BME280;65519;53.230;10.390;2023-05-07T01:07:59;101787.03;;;9.12;76.21
76627;BME280;65519;53.230;10.390;2023-05-07T01:10:25;101776.50;;;9.04;76.55
76627;BME280;65519;53.230;10.390;2023-05-07T01:12:51;101776.00;;;8.96;77.05
76627;BME280;65519;53.230;10.390;2023-05-07T01:15:18;101796.81;;;9.02;77.12
76627;BME280;65519;53.230;10.390;2023-05-07T01:17:43;101806.41;;;9.04;77.27
76627;BME280;65519;53.230;10.390;2023-05-07T01:20:09;101791.97;;;9.04;76.72
76627;BME280;65519;53.230;10.390;2023-05-07T01:22:37;101797.53;;;9.09;77.15
76627;BME280;65519;53.230;10.390;2023-05-07T01:25:04;101775.41;;;8.94;76.58
76627;BME280;65519;53.230;10.390;2023-05-07T01:27:30;101789.38;;;9.09;76.10
76627;BME280;65519;53.230;10.390;2023-05-07T01:29:55;101795.03;;;8.96;76.79
76627;BME280;65519;53.230;10.390;2023-05-07T01:32:47;101788.53;;;8.97;76.53
76627;BME280;65519;53.230;10.390;2023-05-07T01:35:11;101789.47;;;9.02;75.52
76627;BME280;65519;53.230;10.390;2023-05-07T01:37:39;101789.81;;;8.94;75.96
76627;BME280;65519;53.230;10.390;2023-05-07T01:40:05;101797.38;;;8.92;75.95
76627;BME280;65519;53.230;10.390;2023-05-07T01:42:32;101777.13;;;8.88;75.68
76627;BME280;65519;53.230;10.390;2023-05-07T01:44:58;101785.06;;;8.90;75.79
76627;BME280;65519;53.230;10.390;2023-05-07T01:47:23;101781.44;;;8.96;74.88
76627;BME280;65519;53.230;10.390;2023-05-07T01:49:50;101778.72;;;8.96;75.70
76627;BME280;65519;53.230;10.390;2023-05-07T01:52:15;101782.59;;;9.00;75.92
76627;BME280;65519;53.230;10.390;2023-05-07T01:54:40;101789.09;;;8.99;76.27
76627;BME280;65519;53.230;10.390;2023-05-07T01:57:06;101799.31;;;9.03;75.27
76627;BME280;65519;53.230;10.390;2023-05-07T01:59:31;101796.81;;;9.02;75.86
76627;BME280;65519;53.230;10.390;2023-05-07T02:01:56;101800.47;;;8.96;76.14
76627;BME280;65519;53.230;10.390;2023-05-07T02:04:22;101806.84;;;9.01;75.99
76627;BME280;65519;53.230;10.390;2023-05-07T02:06:47;101804.38;;;9.00;75.42
76627;BME280;65519;53.230;10.390;2023-05-07T02:09:13;101809.81;;;9.00;76.14
76627;BME280;65519;53.230;10.390;2023-05-07T02:11:39;101818.56;;;9.02;75.37
76627;BME280;65519;53.230;10.390;2023-05-07T02:14:05;101810.75;;;8.94;75.77
76627;BME280;65519;53.230;10.390;2023-05-07T02:16:30;101821.41;;;8.95;75.05
76627;BME280;65519;53.230;10.390;2023-05-07T02:18:55;101817.00;;;8.94;74.74
76627;BME280;65519;53.230;10.390;2023-05-07T02:21:21;101807.59;;;8.78;75.53
76627;BME280;65519;53.230;10.390;2023-05-07T02:23:47;101828.22;;;8.86;76.05
76627;BME280;65519;53.230;10.390;2023-05-07T02:26:12;101830.72;;;8.69;76.24
76627;BME280;65519;53.230;10.390;2023-05-07T02:28:37;101828.50;;;8.78;75.55
76627;BME280;65519;53.230;10.390;2023-05-07T02:31:03;101810.63;;;8.70;76.66
76627;BME280;65519;53.230;10.390;2023-05-07T02:33:29;101815.91;;;8.84;75.54
76627;BME280;65519;53.230;10.390;2023-05-07T02:35:55;101825.13;;;8.83;76.18
76627;BME280;65519;53.230;10.390;2023-05-07T02:38:22;101821.47;;;8.89;75.87
76627;BME280;65519;53.230;10.390;2023-05-07T02:40:47;101833.88;;;8.85;75.42
76627;BME280;65519;53.230;10.390;2023-05-07T02:43:12;101831.94;;;8.73;76.24
76627;BME280;65519;53.230;10.390;2023-05-07T02:45:38;101823.00;;;8.85;75.84
76627;BME280;65519;53.230;10.390;2023-05-07T02:48:04;101834.09;;;8.83;75.74
76627;BME280;65519;53.230;10.390;2023-05-07T02:50:31;101810.19;;;8.73;76.06
76627;BME280;65519;53.230;10.390;2023-05-07T02:52:57;101828.91;;;8.82;76.58
76627;BME280;65519;53.230;10.390;2023-05-07T02:55:23;101821.78;;;8.81;76.74
76627;BME280;65519;53.230;10.390;2023-05-07T02:57:48;101823.34;;;8.88;76.40
76627;BME280;65519;53.230;10.390;2023-05-07T03:00:18;101825.25;;;8.88;76.00
76627;BME280;65519;53.230;10.390;2023-05-07T03:02:44;101830.22;;;8.91;75.86
76627;BME280;65519;53.230;10.390;2023-05-07T03:05:10;101823.13;;;8.90;74.84
76627;BME280;65519;53.230;10.390;2023-05-07T03:07:36;101830.69;;;8.88;75.61
76627;BME280;65519;53.230;10.390;2023-05-07T03:10:03;101826.22;;;8.93;75.04
76627;BME280;65519;53.230;10.390;2023-05-07T03:12:29;101830.56;;;8.83;75.24
76627;BME280;65519;53.230;10.390;2023-05-07T03:14:54;101834.34;;;8.82;75.87
76627;BME280;65519;53.230;10.390;2023-05-07T03:17:20;101823.47;;;8.82;75.92
76627;BME280;65519;53.230;10.390;2023-05-07T03:19:45;101826.28;;;8.75;75.59
76627;BME280;65519;53.230;10.390;2023-05-07T03:22:11;101832.00;;;8.85;76.02
76627;BME280;65519;53.230;10.390;2023-05-07T03:24:36;101822.63;;;8.81;75.36
76627;BME280;65519;53.230;10.390;2023-05-07T03:27:02;101838.50;;;8.84;76.29
76627;BME280;65519;53.230;10.390;2023-05-07T03:29:27;101830.78;;;8.81;76.34
76627;BME280;65519;53.230;10.390;2023-05-07T03:31:52;101830.22;;;8.91;75.56
76627;BME280;65519;53.230;10.390;2023-05-07T03:34:18;101826.69;;;8.90;75.52
76627;BME280;65519;53.230;10.390;2023-05-07T03:36:50;101826.91;;;8.89;75.29
76627;BME280;65519;53.230;10.390;2023-05-07T03:39:15;101832.34;;;8.89;75.64
76627;BME280;65519;53.230;10.390;2023-05-07T03:41:40;101835.00;;;8.95;75.64
76627;BME280;65519;53.230;10.390;2023-05-07T03:44:06;101824.13;;;8.95;76.12
76627;BME280;65519;53.230;10.390;2023-05-07T03:46:31;101828.34;;;8.91;75.98
76627;BME280;65519;53.230;10.390;2023-05-07T03:48:58;101822.44;;;8.94;75.07
76627;BME280;65519;53.230;10.390;2023-05-07T03:51:23;101829.31;;;8.97;75.37
76627;BME280;65519;53.230;10.390;2023-05-07T03:53:48;101832.94;;;8.91;75.96
76627;BME280;65519;53.230;10.390;2023-05-07T03:56:14;101824.19;;;8.89;75.05
76627;BME280;65519;53.230;10.390;2023-05-07T03:58:39;101830.00;;;8.92;75.96
76627;BME280;65519;53.230;10.390;2023-05-07T04:01:05;101836.28;;;8.93;75.08
76627;BME280;65519;53.230;10.390;2023-05-07T04:03:30;101831.28;;;8.90;75.76
76627;BME280;65519;53.230;10.390;2023-05-07T04:05:55;101836.88;;;8.95;75.60
76627;BME280;65519;53.230;10.390;2023-05-07T04:08:21;101839.09;;;8.86;76.17
76627;BME280;65519;53.230;10.390;2023-05-07T04:10:46;101829.63;;;8.89;75.72
76627;BME280;65519;53.230;10.390;2023-05-07T04:13:11;101841.25;;;8.96;75.96
76627;BME280;65519;53.230;10.390;2023-05-07T04:15:37;101830.84;;;8.93;75.75
76627;BME280;65519;53.230;10.390;2023-05-07T04:18:02;101836.72;;;8.90;76.37
76627;BME280;65519;53.230;10.390;2023-05-07T04:20:27;101841.00;;;8.86;76.79
76627;BME280;65519;53.230;10.390;2023-05-07T04:22:53;101839.31;;;8.85;76.13
76627;BME280;65519;53.230;10.390;2023-05-07T04:25:18;101846.47;;;8.97;75.95
76627;BME280;65519;53.230;10.390;2023-05-07T04:27:43;101843.38;;;8.94;76.21
76627;BME280;65519;53.230;10.390;2023-05-07T04:30:09;101835.59;;;8.97;76.37
76627;BME280;65519;53.230;10.390;2023-05-07T04:32:35;101825.50;;;8.86;76.43
76627;BME280;65519;53.230;10.390;2023-05-07T04:35:02;101845.03;;;8.95;76.70
76627;BME280;65519;53.230;10.390;2023-05-07T04:37:27;101838.66;;;9.01;75.66
76627;BME280;65519;53.230;10.390;2023-05-07T04:39:53;101845.03;;;8.95;75.97
76627;BME280;65519;53.230;10.390;2023-05-07T04:42:18;101839.13;;;8.98;75.13
76627;BME280;65519;53.230;10.390;2023-05-07T04:44:44;101845.16;;;9.00;75.29
76627;BME280;65519;53.230;10.390;2023-05-07T04:47:10;101839.13;;;8.98;75.79
76627;BME280;65519;53.230;10.390;2023-05-07T04:49:36;101854.31;;;9.05;76.07
76627;BME280;65519;53.230;10.390;2023-05-07T04:52:02;101855.44;;;8.98;76.09
76627;BME280;65519;53.230;10.390;2023-05-07T04:54:28;101833.19;;;8.89;75.77
76627;BME280;65519;53.230;10.390;2023-05-07T04:56:54;101863.53;;;9.04;76.06
76627;BME280;65519;53.230;10.390;2023-05-07T04:59:19;101860.44;;;9.01;76.38
76627;BME280;65519;53.230;10.390;2023-05-07T05:01:44;101862.47;;;9.05;74.81
76627;BME280;65519;53.230;10.390;2023-05-07T05:04:10;101864.97;;;9.07;76.07
76627;BME280;65519;53.230;10.390;2023-05-07T05:06:35;101856.03;;;9.00;75.65
76627;BME280;65519;53.230;10.390;2023-05-07T05:09:01;101870.41;;;9.07;76.13
76627;BME280;65519;53.230;10.390;2023-05-07T05:11:26;101860.56;;;9.06;76.20
76627;BME280;65519;53.230;10.390;2023-05-07T05:13:52;101855.38;;;9.04;76.31
76627;BME280;65519;53.230;10.390;2023-05-07T05:16:17;101860.69;;;9.11;75.70
76627;BME280;65519;53.230;10.390;2023-05-07T05:18:42;101872.91;;;9.08;75.41
76627;BME280;65519;53.230;10.390;2023-05-07T05:21:08;101868.47;;;8.96;75.74
76627;BME280;65519;53.230;10.390;2023-05-07T05:23:33;101870.84;;;9.04;75.55
76627;BME280;65519;53.230;10.390;2023-05-07T05:25:59;101877.97;;;9.05;75.47
76627;BME280;65519;53.230;10.390;2023-05-07T05:28:24;101871.47;;;9.06;75.81
76627;BME280;65519;53.230;10.390;2023-05-07T05:30:50;101877.97;;;9.05;76.26
76627;BME280;65519;53.230;10.390;2023-05-07T05:33:15;101873.25;;;9.12;75.70
76627;BME280;65519;53.230;10.390;2023-05-07T05:35:41;101877.84;;;9.11;75.81
76627;BME280;65519;53.230;10.390;2023-05-07T05:38:07;101876.56;;;9.14;75.57
76627;BME280;65519;53.230;10.390;2023-05-07T05:40:32;101871.13;;;9.14;75.67
76627;BME280;65519;53.230;10.390;2023-05-07T05:42:58;101882.38;;;9.18;74.83
76627;BME280;65519;53.230;10.390;2023-05-07T05:45:24;101875.75;;;9.13;75.48
76627;BME280;65519;53.230;10.390;2023-05-07T05:47:49;101870.41;;;9.07;75.90
76627;BME280;65519;53.230;10.390;2023-05-07T05:50:15;101886.28;;;9.22;75.29
76627;BME280;65519;53.230;10.390;2023-05-07T05:52:40;101890.31;;;9.19;74.82
76627;BME280;65519;53.230;10.390;2023-05-07T05:55:07;101887.00;;;9.17;75.81
76627;BME280;65519;53.230;10.390;2023-05-07T05:57:33;101896.66;;;9.13;74.88
76627;BME280;65519;53.230;10.390;2023-05-07T05:59:58;101903.53;;;9.15;75.46
76627;BME280;65519;53.230;10.390;2023-05-07T06:02:24;101896.91;;;9.11;75.79
76627;BME280;65519;53.230;10.390;2023-05-07T06:04:49;101893.28;;;9.18;76.05
76627;BME280;65519;53.230;10.390;2023-05-07T06:07:15;101898.34;;;9.14;75.53
76627;BME280;65519;53.230;10.390;2023-05-07T06:09:40;101889.84;;;9.22;74.51
76627;BME280;65519;53.230;10.390;2023-05-07T06:12:05;101894.00;;;9.25;74.23
76627;BME280;65519;53.230;10.390;2023-05-07T06:14:31;101889.22;;;9.20;74.46
76627;BME280;65519;53.230;10.390;2023-05-07T06:16:56;101901.34;;;9.24;75.16
76627;BME280;65519;53.230;10.390;2023-05-07T06:19:22;101901.59;;;9.34;74.60
76627;BME280;65519;53.230;10.390;2023-05-07T06:21:49;101898.50;;;9.31;75.59
76627;BME280;65519;53.230;10.390;2023-05-07T06:24:14;101903.59;;;9.27;75.35
76627;BME280;65519;53.230;10.390;2023-05-07T06:26:40;101908.56;;;9.30;75.09
76627;BME280;65519;53.230;10.390;2023-05-07T06:29:06;101908.31;;;9.32;75.09
76627;BME280;65519;53.230;10.390;2023-05-07T06:31:31;101894.66;;;9.38;75.48
76627;BME280;65519;53.230;10.390;2023-05-07T06:33:57;101904.25;;;9.41;74.40
76627;BME280;65519;53.230;10.390;2023-05-07T06:36:22;101906.59;;;9.37;74.94
76627;BME280;65519;53.230;10.390;2023-05-07T06:38:48;101889.81;;;9.40;74.27
76627;BME280;65519;53.230;10.390;2023-05-07T06:41:13;101915.72;;;9.43;74.30
76627;BME280;65519;53.230;10.390;2023-05-07T06:43:39;101902.66;;;9.33;74.66
76627;BME280;65519;53.230;10.390;2023-05-07T06:46:04;101904.00;;;9.42;74.24
76627;BME280;65519;53.230;10.390;2023-05-07T06:48:30;101897.03;;;9.46;74.14
76627;BME280;65519;53.230;10.390;2023-05-07T06:50:55;101898.31;;;9.44;74.49
76627;BME280;65519;53.230;10.390;2023-05-07T06:53:23;101906.84;;;9.47;74.07
76627;BME280;65519;53.230;10.390;2023-05-07T06:55:48;101906.97;;;9.52;74.60
76627;BME280;65519;53.230;10.390;2023-05-07T06:58:14;101918.81;;;9.46;74.37
76627;BME280;65519;53.230;10.390;2023-05-07T07:00:39;101915.03;;;9.47;74.78
76627;BME280;65519;53.230;10.390;2023-05-07T07:03:06;101923.03;;;9.42;74.95
76627;BME280;65519;53.230;10.390;2023-05-07T07:05:31;101918.34;;;9.49;74.05
76627;BME280;65519;53.230;10.390;2023-05-07T07:07:56;101912.19;;;9.54;74.06
76627;BME280;65519;53.230;10.390;2023-05-07T07:10:22;101902.03;;;9.49;74.32
76627;BME280;65519;53.230;10.390;2023-05-07T07:12:49;101912.09;;;9.61;74.06
76627;BME280;65519;53.230;10.390;2023-05-07T07:15:14;101916.84;;;9.65;74.54
76627;BME280;65519;53.230;10.390;2023-05-07T07:17:40;101919.91;;;9.57;74.79
76627;BME280;65519;53.230;10.390;2023-05-07T07:20:06;101916.50;;;9.62;73.94
76627;BME280;65519;53.230;10.390;2023-05-07T07:22:31;101919.44;;;9.60;74.35
76627;BME280;65519;53.230;10.390;2023-05-07T07:24:57;101921.69;;;9.51;74.41
76627;BME280;65519;53.230;10.390;2023-05-07T07:27:22;101916.34;;;9.57;74.14
76627;BME280;65519;53.230;10.390;2023-05-07T07:29:47;101918.50;;;9.66;74.61
76627;BME280;65519;53.230;10.390;2023-05-07T07:32:13;101920.63;;;9.64;74.43
76627;BME280;65519;53.230;10.390;2023-05-07T07:34:38;101912.13;;;9.72;74.53
76627;BME280;65519;53.230;10.390;2023-05-07T07:37:04;101926.31;;;9.74;73.33
76627;BME280;65519;53.230;10.390;2023-05-07T07:39:34;101922.31;;;9.77;73.09
76627;BME280;65519;53.230;10.390;2023-05-07T07:42:00;101922.06;;;9.67;73.84
76627;BME280;65519;53.230;10.390;2023-05-07T07:44:28;101925.50;;;9.74;73.13
76627;BME280;65519;53.230;10.390;2023-05-07T07:46:53;101922.91;;;9.79;72.72
76627;BME280;65519;53.230;10.390;2023-05-07T07:49:19;101926.25;;;9.81;72.15
76627;BME280;65519;53.230;10.390;2023-05-07T07:51:44;101918.06;;;9.81;72.49
76627;BME280;65519;53.230;10.390;2023-05-07T07:54:09;101919.00;;;9.86;72.44
76627;BME280;65519;53.230;10.390;2023-05-07T07:56:35;101918.94;;;9.93;72.32
76627;BME280;65519;53.230;10.390;2023-05-07T07:59:00;101926.50;;;9.91;72.81
76627;BME280;65519;53.230;10.390;2023-05-07T08:01:27;101922.81;;;9.97;71.84
76627;BME280;65519;53.230;10.390;2023-05-07T08:03:52;101929.22;;;9.91;72.13
76627;BME280;65519;53.230;10.390;2023-05-07T08:06:18;101931.00;;;9.97;72.38
76627;BME280;65519;53.230;10.390;2023-05-07T08:08:43;101936.22;;;9.99;72.21
76627;BME280;65519;53.230;10.390;2023-05-07T08:11:09;101933.25;;;10.00;72.36
76627;BME280;65519;53.230;10.390;2023-05-07T08:13:36;101932.91;;;10.08;72.31
76627;BME280;65519;53.230;10.390;2023-05-07T08:16:01;101931.25;;;10.07;71.71
76627;BME280;65519;53.230;10.390;2023-05-07T08:18:27;101940.75;;;10.16;72.43
76627;BME280;65519;53.230;10.390;2023-05-07T08:20:54;101925.59;;;10.20;70.98
76627;BME280;65519;53.230;10.390;2023-05-07T08:23:20;101933.19;;;10.30;70.82
76627;BME280;65519;53.230;10.390;2023-05-07T08:25:45;101932.94;;;10.32;71.98
76627;BME280;65519;53.230;10.390;2023-05-07T08:28:11;101935.53;;;10.15;71.70
76627;BME280;65519;53.230;10.390;2023-05-07T08:30:36;101939.94;;;10.39;71.00
76627;BME280;65519;53.230;10.390;2023-05-07T08:33:01;101937.94;;;10.58;70.96
76627;BME280;65519;53.230;10.390;2023-05-07T08:35:27;101941.81;;;10.62;70.17
76627;BME280;65519;53.230;10.390;2023-05-07T08:37:53;101948.81;;;10.70;69.86
76627;BME280;65519;53.230;10.390;2023-05-07T08:40:18;101932.34;;;10.53;69.76
76627;BME280;65519;53.230;10.390;2023-05-07T08:42:44;101953.31;;;10.64;69.54
76627;BME280;65519;53.230;10.390;2023-05-07T08:45:11;101959.59;;;10.65;68.99
76627;BME280;65519;53.230;10.390;2023-05-07T08:47:51;101961.41;;;10.59;69.55
76627;BME280;65519;53.230;10.390;2023-05-07T08:50:18;101951.81;;;10.45;70.29
76627;BME280;65519;53.230;10.390;2023-05-07T08:52:43;101964.47;;;10.51;70.63
76627;BME280;65519;53.230;10.390;2023-05-07T08:55:09;101965.75;;;10.60;70.94
76627;BME280;65519;53.230;10.390;2023-05-07T08:57:35;101965.19;;;10.58;70.31
76627;BME280;65519;53.230;10.390;2023-05-07T09:00:02;101965.75;;;10.60;70.40
76627;BME280;65519;53.230;10.390;2023-05-07T09:02:28;101958.31;;;10.55;71.01
76627;BME280;65519;53.230;10.390;2023-05-07T09:04:54;101959.59;;;10.65;70.82
76627;BME280;65519;53.230;10.390;2023-05-07T09:07:20;101956.06;;;10.64;70.60
76627;BME280;65519;53.230;10.390;2023-05-07T09:09:46;101954.28;;;10.58;70.06
76627;BME280;65519;53.230;10.390;2023-05-07T09:12:11;101971.94;;;10.67;70.73
76627;BME280;65519;53.230;10.390;2023-05-07T09:14:37;101980.81;;;10.63;70.62
76627;BME280;65519;53.230;10.390;2023-05-07T09:17:03;101972.78;;;10.68;70.14
76627;BME280;65519;53.230;10.390;2023-05-07T09:19:28;101973.22;;;10.76;69.58
76627;BME280;65519;53.230;10.390;2023-05-07T09:22:04;101974.75;;;10.84;69.37
76627;BME280;65519;53.230;10.390;2023-05-07T09:24:32;101975.59;;;10.84;69.67
76627;BME280;65519;53.230;10.390;2023-05-07T09:27:04;101978.31;;;10.73;69.77
76627;BME280;65519;53.230;10.390;2023-05-07T09:29:30;101979.88;;;10.80;68.95
76627;BME280;65519;53.230;10.390;2023-05-07T09:32:01;101965.66;;;10.78;69.41
76627;BME280;65519;53.230;10.390;2023-05-07T09:34:28;101991.72;;;10.86;69.50
76627;BME280;65519;53.230;10.390;2023-05-07T09:36:53;101982.00;;;10.90;68.66
76627;BME280;65519;53.230;10.390;2023-05-07T09:39:19;101977.59;;;10.89;69.72
76627;BME280;65519;53.230;10.390;2023-05-07T09:41:48;101978.31;;;10.96;68.94
76627;BME280;65519;53.230;10.390;2023-05-07T09:44:14;101974.03;;;11.00;67.94
76627;BME280;65519;53.230;10.390;2023-05-07T09:46:42;101979.00;;;11.03;69.15
76627;BME280;65519;53.230;10.390;2023-05-07T09:49:12;101979.81;;;11.04;68.84
76627;BME280;65519;53.230;10.390;2023-05-07T09:52:00;101977.91;;;11.04;68.86
76627;BME280;65519;53.230;10.390;2023-05-07T09:54:26;101977.91;;;11.04;69.19
76627;BME280;65519;53.230;10.390;2023-05-07T09:56:56;101986.00;;;11.11;68.49
76627;BME280;65519;53.230;10.390;2023-05-07T09:59:22;101965.72;;;10.95;68.45
76627;BME280;65519;53.230;10.390;2023-05-07T10:01:51;101995.84;;;11.12;68.15
76627;BME280;65519;53.230;10.390;2023-05-07T10:04:17;101984.41;;;11.15;68.36
76627;BME280;65519;53.230;10.390;2023-05-07T10:06:44;101981.16;;;11.01;68.03
76627;BME280;65519;53.230;10.390;2023-05-07T10:09:10;101989.09;;;11.03;67.88
76627;BME280;65519;53.230;10.390;2023-05-07T10:11:36;101994.06;;;11.06;67.92
76627;BME280;65519;53.230;10.390;2023-05-07T10:14:03;101991.91;;;11.08;67.92
76627;BME280;65519;53.230;10.390;2023-05-07T10:16:32;101992.06;;;11.01;68.62
76627;BME280;65519;53.230;10.390;2023-05-07T10:18:58;101989.78;;;11.10;69.12
76627;BME280;65519;53.230;10.390;2023-05-07T10:21:26;101993.78;;;11.19;67.85
76627;BME280;65519;53.230;10.390;2023-05-07T10:24:22;101992.25;;;11.23;67.82
76627;BME280;65519;53.230;10.390;2023-05-07T10:26:52;101987.22;;;11.31;67.38
76627;BME280;65519;53.230;10.390;2023-05-07T10:34:22;101984.16;;;11.28;67.05
76627;BME280;65519;53.230;10.390;2023-05-07T10:36:50;101999.44;;;11.41;67.01
76627;BME280;65519;53.230;10.390;2023-05-07T10:39:17;101981.78;;;11.31;67.14
76627;BME280;65519;53.230;10.390;2023-05-07T10:41:42;101991.47;;;11.39;67.21
76627;BME280;65519;53.230;10.390;2023-05-07T10:44:08;101993.13;;;11.40;66.99
76627;BME280;65519;53.230;10.390;2023-05-07T10:46:33;101997.72;;;11.51;66.23
76627;BME280;65519;53.230;10.390;2023-05-07T10:51:26;101999.03;;;11.49;66.64
76627;BME280;65519;53.230;10.390;2023-05-07T10:56:43;101999.53;;;11.46;66.68
76627;BME280;65519;53.230;10.390;2023-05-07T11:01:56;101993.94;;;11.52;66.05
76627;BME280;65519;53.230;10.390;2023-05-07T11:04:22;101985.75;;;11.69;66.19
76627;BME280;65519;53.230;10.390;2023-05-07T11:15:07;101981.72;;;11.71;65.40
76627;BME280;65519;53.230;10.390;2023-05-07T11:17:34;102001.56;;;11.79;65.71
76627;BME280;65519;53.230;10.390;2023-05-07T11:20:01;101993.22;;;11.85;64.99
76627;BME280;65519;53.230;10.390;2023-05-07T11:24:55;101990.66;;;12.12;65.48
76627;BME280;65519;53.230;10.390;2023-05-07T11:27:24;102001.75;;;12.22;65.09
76627;BME280;65519;53.230;10.390;2023-05-07T11:29:50;101994.25;;;12.29;64.00
76627;BME280;65519;53.230;10.390;2023-05-07T11:32:15;101990.28;;;12.20;63.94
76627;BME280;65519;53.230;10.390;2023-05-07T11:34:47;101982.91;;;12.21;63.68
76627;BME280;65519;53.230;10.390;2023-05-07T11:37:17;101994.16;;;12.41;62.86
76627;BME280;65519;53.230;10.390;2023-05-07T11:39:43;101995.91;;;12.30;63.98
76627;BME280;65519;53.230;10.390;2023-05-07T11:42:28;101993.91;;;12.42;62.73
76627;BME280;65519;53.230;10.390;2023-05-07T11:44:54;101998.38;;;12.49;61.88
76627;BME280;65519;53.230;10.390;2023-05-07T11:47:20;101982.34;;;12.57;62.53
76627;BME280;65519;53.230;10.390;2023-05-07T11:49:47;101981.22;;;12.92;62.03
76627;BME280;65519;53.230;10.390;2023-05-07T11:52:14;101982.69;;;12.99;61.98
76627;BME280;65519;53.230;10.390;2023-05-07T11:54:39;101979.69;;;13.18;61.95
76627;BME280;65519;53.230;10.390;2023-05-07T11:57:05;101986.81;;;13.19;61.83
76627;BME280;65519;53.230;10.390;2023-05-07T11:59:41;101988.78;;;13.23;61.24
76627;BME280;65519;53.230;10.390;2023-05-07T12:02:06;101982.00;;;13.31;61.68
76627;BME280;65519;53.230;10.390;2023-05-07T12:04:32;101995.69;;;13.31;60.14
76627;BME280;65519;53.230;10.390;2023-05-07T12:06:57;101975.53;;;13.37;59.17
76627;BME280;65519;53.230;10.390;2023-05-07T12:09:23;101983.38;;;13.11;60.05
76627;BME280;65519;53.230;10.390;2023-05-07T12:11:48;101994.03;;;13.08;60.91
76627;BME280;65519;53.230;10.390;2023-05-07T12:14:14;101979.69;;;13.01;60.61
76627;BME280;65519;53.230;10.390;2023-05-07T12:16:43;101985.53;;;13.26;60.19
76627;BME280;65519;53.230;10.390;2023-05-07T12:19:08;101985.66;;;13.36;59.92
76627;BME280;65519;53.230;10.390;2023-05-07T12:21:37;101972.47;;;13.33;60.26
76627;BME280;65519;53.230;10.390;2023-05-07T12:24:03;101979.06;;;13.59;60.50
76627;BME280;65519;53.230;10.390;2023-05-07T12:26:29;101981.50;;;13.82;59.47
76627;BME280;65519;53.230;10.390;2023-05-07T12:28:54;101969.38;;;13.78;57.74
76627;BME280;65519;53.230;10.390;2023-05-07T12:31:20;101983.53;;;14.29;58.96
76627;BME280;65519;53.230;10.390;2023-05-07T12:33:45;101988.50;;;14.32;58.32
76627;BME280;65519;53.230;10.390;2023-05-07T12:36:12;101979.41;;;14.58;56.38
76627;BME280;65519;53.230;10.390;2023-05-07T12:38:38;101976.69;;;14.64;55.42
76627;BME280;65519;53.230;10.390;2023-05-07T12:41:06;101973.53;;;14.87;55.98
76627;BME280;65519;53.230;10.390;2023-05-07T12:43:32;101965.88;;;14.94;55.65
76627;BME280;65519;53.230;10.390;2023-05-07T12:46:01;101971.91;;;14.91;54.64
76627;BME280;65519;53.230;10.390;2023-05-07T12:48:27;101964.72;;;14.85;54.33
76627;BME280;65519;53.230;10.390;2023-05-07T12:50:53;101974.16;;;14.99;55.60
76627;BME280;65519;53.230;10.390;2023-05-07T12:53:22;101968.22;;;15.22;54.18
76627;BME280;65519;53.230;10.390;2023-05-07T12:55:49;101963.84;;;15.37;54.00
76627;BME280;65519;53.230;10.390;2023-05-07T12:58:16;101968.31;;;15.58;53.11
76627;BME280;65519;53.230;10.390;2023-05-07T13:00:41;101971.00;;;15.48;52.64
76627;BME280;65519;53.230;10.390;2023-05-07T13:03:08;101974.53;;;15.23;53.41